sensor_id;sensor_type;location;lat;lon;timestamp;temperature;humidity
27016;DHT22;14557;0.000;0.000;2023-12-22T00:01:28;20.90;55.50
27016;DHT22;14557;0.000;0.000;2023-12-22T00:03:53;20.90;56.30
27016;DHT22;14557;0.000;0.000;2023-12-22T00:06:19;20.90;55.80
27016;DHT22;14557;0.000;0.000;2023-12-22T00:08:45;20.90;55.90
27016;DHT22;14557;0.000;0.000;2023-12-22T00:11:11;20.80;55.90
27016;DHT22;14557;0.000;0.000;2023-12-22T00:13:36;20.90;55.80
27016;DHT22;14557;0.000;0.000;2023-12-22T00:16:02;20.80;55.90
27016;DHT22;14557;0.000;0.000;2023-12-22T00:18:28;20.80;56.00
27016;DHT22;14557;0.000;0.000;2023-12-22T00:20:54;20.70;56.00
27016;DHT22;14557;0.000;0.000;2023-12-22T00:23:20;20.70;55.90
27016;DHT22;14557;0.000;0.000;2023-12-22T00:25:46;20.70;55.90
27016;DHT22;14557;0.000;0.000;2023-12-22T00:28:11;20.70;56.10
27016;DHT22;14557;0.000;0.000;2023-12-22T00:30:37;20.70;56.00
27016;DHT22;14557;0.000;0.000;2023-12-22T00:33:03;20.70;56.00
27016;DHT22;14557;0.000;0.000;2023-12-22T00:35:29;20.70;56.00
27016;DHT22;14557;0.000;0.000;2023-12-22T00:37:55;20.60;55.90
27016;DHT22;14557;0.000;0.000;2023-12-22T00:40:20;20.60;56.00
27016;DHT22;14557;0.000;0.000;2023-12-22T00:42:46;20.60;55.80
27016;DHT22;14557;0.000;0.000;2023-12-22T00:45:12;20.60;55.70
27016;DHT22;14557;0.000;0.000;2023-12-22T00:47:37;20.60;55.70
27016;DHT22;14557;0.000;0.000;2023-12-22T00:50:04;20.60;55.80
27016;DHT22;14557;0.000;0.000;2023-12-22T00:52:31;20.60;55.90
27016;DHT22;14557;0.000;0.000;2023-12-22T00:54:56;20.60;55.80
27016;DHT22;14557;0.000;0.000;2023-12-22T00:57:23;20.50;55.70
27016;DHT22;14557;0.000;0.000;2023-12-22T00:59:48;20.50;55.70
27016;DHT22;14557;0.000;0.000;2023-12-22T01:02:15;20.50;55.70
27016;DHT22;14557;0.000;0.000;2023-12-22T01:04:41;20.50;55.90
27016;DHT22;14557;0.000;0.000;2023-12-22T01:07:10;20.50;55.60
27016;DHT22;14557;0.000;0.000;2023-12-22T01:09:37;20.50;55.80
27016;DHT22;14557;0.000;0.000;2023-12-22T01:12:06;20.40;55.80
27016;DHT22;14557;0.000;0.000;2023-12-22T01:14:33;20.40;55.70
27016;DHT22;14557;0.000;0.000;2023-12-22T01:16:59;20.40;56.00
27016;DHT22;14557;0.000;0.000;2023-12-22T01:19:26;20.40;56.00
27016;DHT22;14557;0.000;0.000;2023-12-22T01:21:51;20.40;56.00
27016;DHT22;14557;0.000;0.000;2023-12-22T01:24:17;20.40;56.10
27016;DHT22;14557;0.000;0.000;2023-12-22T01:26:43;20.40;56.20
27016;DHT22;14557;0.000;0.000;2023-12-22T01:29:09;20.40;56.20
27016;DHT22;14557;0.000;0.000;2023-12-22T01:31:35;20.40;56.40
27016;DHT22;14557;0.000;0.000;2023-12-22T01:34:01;20.30;56.30
27016;DHT22;14557;0.000;0.000;2023-12-22T01:36:27;20.30;56.10
27016;DHT22;14557;0.000;0.000;2023-12-22T01:38:52;20.30;56.20
27016;DHT22;14557;0.000;0.000;2023-12-22T01:41:18;20.30;56.40
27016;DHT22;14557;0.000;0.000;2023-12-22T01:43:44;20.30;56.10
27016;DHT22;14557;0.000;0.000;2023-12-22T01:46:11;20.30;56.10
27016;DHT22;14557;0.000;0.000;2023-12-22T01:48:38;20.30;56.10
27016;DHT22;14557;0.000;0.000;2023-12-22T01:51:04;20.20;56.00
27016;DHT22;14557;0.000;0.000;2023-12-22T01:53:31;20.20;56.30
27016;DHT22;14557;0.000;0.000;2023-12-22T01:55:59;20.20;56.30
27016;DHT22;14557;0.000;0.000;2023-12-22T01:58:26;20.20;56.30
27016;DHT22;14557;0.000;0.000;2023-12-22T02:00:53;20.20;56.00
27016;DHT22;14557;0.000;0.000;2023-12-22T02:03:19;20.20;56.10
27016;DHT22;14557;0.000;0.000;2023-12-22T02:05:45;20.10;56.20
27016;DHT22;14557;0.000;0.000;2023-12-22T02:08:11;20.10;56.00
27016;DHT22;14557;0.000;0.000;2023-12-22T02:10:38;20.10;56.00
27016;DHT22;14557;0.000;0.000;2023-12-22T02:13:04;20.10;56.00
27016;DHT22;14557;0.000;0.000;2023-12-22T02:15:31;20.10;56.20
27016;DHT22;14557;0.000;0.000;2023-12-22T02:18:18;20.10;56.10
27016;DHT22;14557;0.000;0.000;2023-12-22T02:20:45;20.10;56.20
27016;DHT22;14557;0.000;0.000;2023-12-22T02:23:12;20.10;56.40
27016;DHT22;14557;0.000;0.000;2023-12-22T02:25:37;20.10;56.00
27016;DHT22;14557;0.000;0.000;2023-12-22T02:28:09;20.10;56.10
27016;DHT22;14557;0.000;0.000;2023-12-22T02:33:07;20.10;56.10
27016;DHT22;14557;0.000;0.000;2023-12-22T02:35:36;20.00;56.40
27016;DHT22;14557;0.000;0.000;2023-12-22T02:38:04;20.00;56.20
27016;DHT22;14557;0.000;0.000;2023-12-22T02:40:31;20.00;56.40
27016;DHT22;14557;0.000;0.000;2023-12-22T02:42:57;20.00;56.30
27016;DHT22;14557;0.000;0.000;2023-12-22T02:45:23;20.00;56.30
27016;DHT22;14557;0.000;0.000;2023-12-22T02:47:49;20.00;56.30
27016;DHT22;14557;0.000;0.000;2023-12-22T02:50:16;20.00;56.40
27016;DHT22;14557;0.000;0.000;2023-12-22T02:52:42;20.00;56.30
27016;DHT22;14557;0.000;0.000;2023-12-22T02:55:08;20.00;56.30
27016;DHT22;14557;0.000;0.000;2023-12-22T02:57:34;20.00;56.90
27016;DHT22;14557;0.000;0.000;2023-12-22T03:00:00;20.00;56.30
27016;DHT22;14557;0.000;0.000;2023-12-22T03:02:26;20.00;56.30
27016;DHT22;14557;0.000;0.000;2023-12-22T03:04:51;19.90;56.40
27016;DHT22;14557;0.000;0.000;2023-12-22T03:07:17;19.90;56.40
27016;DHT22;14557;0.000;0.000;2023-12-22T03:09:43;19.90;56.40
27016;DHT22;14557;0.000;0.000;2023-12-22T03:12:10;19.90;56.20
27016;DHT22;14557;0.000;0.000;2023-12-22T03:14:36;19.90;56.40
27016;DHT22;14557;0.000;0.000;2023-12-22T03:17:04;19.90;56.40
27016;DHT22;14557;0.000;0.000;2023-12-22T03:19:30;19.90;56.50
27016;DHT22;14557;0.000;0.000;2023-12-22T03:21:56;19.90;56.50
27016;DHT22;14557;0.000;0.000;2023-12-22T03:24:23;19.90;56.40
27016;DHT22;14557;0.000;0.000;2023-12-22T03:26:49;19.90;56.40
27016;DHT22;14557;0.000;0.000;2023-12-22T03:29:15;19.80;56.40
27016;DHT22;14557;0.000;0.000;2023-12-22T03:31:41;19.80;56.50
27016;DHT22;14557;0.000;0.000;2023-12-22T03:34:07;19.80;56.50
27016;DHT22;14557;0.000;0.000;2023-12-22T03:36:33;19.80;56.60
27016;DHT22;14557;0.000;0.000;2023-12-22T03:38:58;19.80;56.60
27016;DHT22;14557;0.000;0.000;2023-12-22T03:41:24;19.80;56.60
27016;DHT22;14557;0.000;0.000;2023-12-22T03:43:50;19.80;56.60
27016;DHT22;14557;0.000;0.000;2023-12-22T03:46:16;19.80;56.60
27016;DHT22;14557;0.000;0.000;2023-12-22T03:48:42;19.80;56.80
27016;DHT22;14557;0.000;0.000;2023-12-22T03:51:07;19.80;56.80
27016;DHT22;14557;0.000;0.000;2023-12-22T03:53:36;19.80;56.70
27016;DHT22;14557;0.000;0.000;2023-12-22T03:56:01;19.70;56.70
27016;DHT22;14557;0.000;0.000;2023-12-22T03:58:27;19.80;56.80
27016;DHT22;14557;0.000;0.000;2023-12-22T04:00:55;19.80;56.70
27016;DHT22;14557;0.000;0.000;2023-12-22T04:03:21;19.70;56.70
27016;DHT22;14557;0.000;0.000;2023-12-22T04:05:47;19.70;56.90
27016;DHT22;14557;0.000;0.000;2023-12-22T04:08:12;19.70;56.90
27016;DHT22;14557;0.000;0.000;2023-12-22T04:10:38;19.70;56.80
27016;DHT22;14557;0.000;0.000;2023-12-22T04:13:04;19.70;56.90
27016;DHT22;14557;0.000;0.000;2023-12-22T04:15:29;19.70;56.90
27016;DHT22;14557;0.000;0.000;2023-12-22T04:17:55;19.70;56.90
27016;DHT22;14557;0.000;0.000;2023-12-22T04:20:21;19.70;57.00
27016;DHT22;14557;0.000;0.000;2023-12-22T04:22:47;19.70;57.00
27016;DHT22;14557;0.000;0.000;2023-12-22T04:25:13;19.60;56.90
27016;DHT22;14557;0.000;0.000;2023-12-22T04:27:38;19.60;57.00
27016;DHT22;14557;0.000;0.000;2023-12-22T04:30:04;19.60;57.00
27016;DHT22;14557;0.000;0.000;2023-12-22T04:32:30;19.60;57.00
27016;DHT22;14557;0.000;0.000;2023-12-22T04:34:56;19.60;57.10
27016;DHT22;14557;0.000;0.000;2023-12-22T04:37:22;19.60;57.20
27016;DHT22;14557;0.000;0.000;2023-12-22T04:39:47;19.60;57.20
27016;DHT22;14557;0.000;0.000;2023-12-22T04:42:13;19.60;57.10
27016;DHT22;14557;0.000;0.000;2023-12-22T04:44:39;19.60;57.20
27016;DHT22;14557;0.000;0.000;2023-12-22T04:47:04;19.60;57.20
27016;DHT22;14557;0.000;0.000;2023-12-22T04:49:30;19.60;57.30
27016;DHT22;14557;0.000;0.000;2023-12-22T04:51:56;19.50;57.10
27016;DHT22;14557;0.000;0.000;2023-12-22T04:54:22;19.50;57.20
27016;DHT22;14557;0.000;0.000;2023-12-22T04:56:47;19.50;57.20
27016;DHT22;14557;0.000;0.000;2023-12-22T04:59:13;19.50;57.20
27016;DHT22;14557;0.000;0.000;2023-12-22T05:01:39;19.50;57.20
27016;DHT22;14557;0.000;0.000;2023-12-22T05:04:04;19.50;57.10
27016;DHT22;14557;0.000;0.000;2023-12-22T05:06:31;19.50;57.20
27016;DHT22;14557;0.000;0.000;2023-12-22T05:08:57;19.50;57.20
27016;DHT22;14557;0.000;0.000;2023-12-22T05:11:23;19.50;57.30
27016;DHT22;14557;0.000;0.000;2023-12-22T05:13:48;19.50;57.10
27016;DHT22;14557;0.000;0.000;2023-12-22T05:16:14;19.50;57.30
27016;DHT22;14557;0.000;0.000;2023-12-22T05:18:40;19.50;57.30
27016;DHT22;14557;0.000;0.000;2023-12-22T05:21:06;19.50;57.20
27016;DHT22;14557;0.000;0.000;2023-12-22T05:23:32;19.40;57.20
27016;DHT22;14557;0.000;0.000;2023-12-22T05:25:58;19.40;57.20
27016;DHT22;14557;0.000;0.000;2023-12-22T05:28:24;19.40;57.80
27016;DHT22;14557;0.000;0.000;2023-12-22T05:30:50;19.40;57.30
27016;DHT22;14557;0.000;0.000;2023-12-22T05:33:15;19.40;57.30
27016;DHT22;14557;0.000;0.000;2023-12-22T05:35:41;19.40;57.20
27016;DHT22;14557;0.000;0.000;2023-12-22T05:38:07;19.40;57.40
27016;DHT22;14557;0.000;0.000;2023-12-22T05:40:33;19.40;57.20
27016;DHT22;14557;0.000;0.000;2023-12-22T05:42:58;19.40;57.30
27016;DHT22;14557;0.000;0.000;2023-12-22T05:45:24;19.40;57.10
27016;DHT22;14557;0.000;0.000;2023-12-22T05:47:50;19.40;57.30
27016;DHT22;14557;0.000;0.000;2023-12-22T05:50:17;19.40;57.30
27016;DHT22;14557;0.000;0.000;2023-12-22T05:52:43;19.40;57.30
27016;DHT22;14557;0.000;0.000;2023-12-22T05:55:11;19.30;57.10
27016;DHT22;14557;0.000;0.000;2023-12-22T05:57:37;19.30;57.20
27016;DHT22;14557;0.000;0.000;2023-12-22T06:00:04;19.30;57.30
27016;DHT22;14557;0.000;0.000;2023-12-22T06:02:33;19.30;57.20
27016;DHT22;14557;0.000;0.000;2023-12-22T06:04:59;19.30;57.20
27016;DHT22;14557;0.000;0.000;2023-12-22T06:07:25;19.30;57.30
27016;DHT22;14557;0.000;0.000;2023-12-22T06:09:51;19.30;57.20
27016;DHT22;14557;0.000;0.000;2023-12-22T06:12:17;19.30;57.30
27016;DHT22;14557;0.000;0.000;2023-12-22T06:14:42;19.30;57.20
27016;DHT22;14557;0.000;0.000;2023-12-22T06:17:08;19.30;57.30
27016;DHT22;14557;0.000;0.000;2023-12-22T06:19:35;19.30;57.30
27016;DHT22;14557;0.000;0.000;2023-12-22T06:22:01;19.20;57.10
27016;DHT22;14557;0.000;0.000;2023-12-22T06:24:27;19.30;57.30
27016;DHT22;14557;0.000;0.000;2023-12-22T06:26:53;19.30;57.30
27016;DHT22;14557;0.000;0.000;2023-12-22T06:29:20;19.20;57.10
27016;DHT22;14557;0.000;0.000;2023-12-22T06:31:46;19.20;57.20
27016;DHT22;14557;0.000;0.000;2023-12-22T06:34:19;19.20;57.10
27016;DHT22;14557;0.000;0.000;2023-12-22T06:36:45;19.20;57.20
27016;DHT22;14557;0.000;0.000;2023-12-22T06:39:11;19.20;57.10
27016;DHT22;14557;0.000;0.000;2023-12-22T06:41:36;19.20;57.20
27016;DHT22;14557;0.000;0.000;2023-12-22T06:44:02;19.20;57.20
27016;DHT22;14557;0.000;0.000;2023-12-22T06:46:28;19.20;57.20
27016;DHT22;14557;0.000;0.000;2023-12-22T06:48:55;19.20;57.20
27016;DHT22;14557;0.000;0.000;2023-12-22T06:51:25;19.20;57.20
27016;DHT22;14557;0.000;0.000;2023-12-22T06:53:52;19.20;57.10
27016;DHT22;14557;0.000;0.000;2023-12-22T06:56:26;19.20;57.10
27016;DHT22;14557;0.000;0.000;2023-12-22T06:58:54;19.20;57.20
27016;DHT22;14557;0.000;0.000;2023-12-22T07:01:22;19.20;57.20
27016;DHT22;14557;0.000;0.000;2023-12-22T07:03:48;19.20;57.20
27016;DHT22;14557;0.000;0.000;2023-12-22T07:06:18;19.10;57.20
27016;DHT22;14557;0.000;0.000;2023-12-22T07:11:29;19.20;57.20
27016;DHT22;14557;0.000;0.000;2023-12-22T07:13:55;19.20;57.20
27016;DHT22;14557;0.000;0.000;2023-12-22T07:16:20;19.10;57.30
27016;DHT22;14557;0.000;0.000;2023-12-22T07:18:46;19.20;57.30
27016;DHT22;14557;0.000;0.000;2023-12-22T07:21:16;19.20;57.40
27016;DHT22;14557;0.000;0.000;2023-12-22T07:23:43;19.20;57.40
27016;DHT22;14557;0.000;0.000;2023-12-22T07:26:10;19.20;57.40
27016;DHT22;14557;0.000;0.000;2023-12-22T07:28:35;19.20;57.40
27016;DHT22;14557;0.000;0.000;2023-12-22T07:31:01;19.20;57.50
27016;DHT22;14557;0.000;0.000;2023-12-22T07:33:27;19.20;57.50
27016;DHT22;14557;0.000;0.000;2023-12-22T07:35:54;19.10;57.40
27016;DHT22;14557;0.000;0.000;2023-12-22T07:38:20;19.20;57.40
27016;DHT22;14557;0.000;0.000;2023-12-22T07:40:46;19.20;57.40
27016;DHT22;14557;0.000;0.000;2023-12-22T07:43:12;19.20;57.40
27016;DHT22;14557;0.000;0.000;2023-12-22T07:45:38;19.20;57.40
27016;DHT22;14557;0.000;0.000;2023-12-22T07:48:04;19.20;57.50
27016;DHT22;14557;0.000;0.000;2023-12-22T07:50:30;19.20;57.50
27016;DHT22;14557;0.000;0.000;2023-12-22T07:52:56;19.20;57.50
27016;DHT22;14557;0.000;0.000;2023-12-22T07:55:21;19.20;57.50
27016;DHT22;14557;0.000;0.000;2023-12-22T07:57:47;19.20;57.50
27016;DHT22;14557;0.000;0.000;2023-12-22T08:00:13;19.10;57.50
27016;DHT22;14557;0.000;0.000;2023-12-22T08:02:39;19.20;57.60
27016;DHT22;14557;0.000;0.000;2023-12-22T08:05:05;19.20;57.60
27016;DHT22;14557;0.000;0.000;2023-12-22T08:07:31;19.10;57.50
27016;DHT22;14557;0.000;0.000;2023-12-22T08:09:57;19.20;57.40
27016;DHT22;14557;0.000;0.000;2023-12-22T08:12:23;19.20;57.40
27016;DHT22;14557;0.000;0.000;2023-12-22T08:14:48;19.20;57.40
27016;DHT22;14557;0.000;0.000;2023-12-22T08:17:14;19.10;57.40
27016;DHT22;14557;0.000;0.000;2023-12-22T08:19:40;19.20;57.80
27016;DHT22;14557;0.000;0.000;2023-12-22T08:22:12;19.20;58.70
27016;DHT22;14557;0.000;0.000;2023-12-22T08:24:40;19.40;60.80
27016;DHT22;14557;0.000;0.000;2023-12-22T08:27:07;19.60;62.60
27016;DHT22;14557;0.000;0.000;2023-12-22T08:29:33;19.70;60.30
27016;DHT22;14557;0.000;0.000;2023-12-22T08:31:59;19.70;59.50
27016;DHT22;14557;0.000;0.000;2023-12-22T08:34:26;19.70;59.10
27016;DHT22;14557;0.000;0.000;2023-12-22T08:36:52;19.70;59.70
27016;DHT22;14557;0.000;0.000;2023-12-22T08:39:17;19.70;59.50
27016;DHT22;14557;0.000;0.000;2023-12-22T08:41:44;19.80;62.60
27016;DHT22;14557;0.000;0.000;2023-12-22T08:44:10;19.90;60.80
27016;DHT22;14557;0.000;0.000;2023-12-22T08:46:36;20.00;59.90
27016;DHT22;14557;0.000;0.000;2023-12-22T08:49:02;20.00;59.50
27016;DHT22;14557;0.000;0.000;2023-12-22T08:51:28;20.00;59.20
27016;DHT22;14557;0.000;0.000;2023-12-22T08:53:55;20.00;59.70
27016;DHT22;14557;0.000;0.000;2023-12-22T08:56:24;20.00;59.70
27016;DHT22;14557;0.000;0.000;2023-12-22T08:58:52;20.10;66.50
27016;DHT22;14557;0.000;0.000;2023-12-22T09:01:18;20.10;63.80
27016;DHT22;14557;0.000;0.000;2023-12-22T09:03:44;20.00;60.80
27016;DHT22;14557;0.000;0.000;2023-12-22T09:06:20;20.00;60.50
27016;DHT22;14557;0.000;0.000;2023-12-22T09:08:46;19.90;62.70
27016;DHT22;14557;0.000;0.000;2023-12-22T09:11:16;19.90;61.50
27016;DHT22;14557;0.000;0.000;2023-12-22T09:13:42;19.90;60.90
27016;DHT22;14557;0.000;0.000;2023-12-22T09:16:09;19.90;60.20
27016;DHT22;14557;0.000;0.000;2023-12-22T09:18:35;19.90;60.00
27016;DHT22;14557;0.000;0.000;2023-12-22T09:21:02;19.80;61.10
27016;DHT22;14557;0.000;0.000;2023-12-22T09:23:32;19.90;63.70
27016;DHT22;14557;0.000;0.000;2023-12-22T09:25:58;19.90;64.50
27016;DHT22;14557;0.000;0.000;2023-12-22T09:28:24;20.00;62.80
27016;DHT22;14557;0.000;0.000;2023-12-22T09:30:50;20.00;61.50
27016;DHT22;14557;0.000;0.000;2023-12-22T09:33:16;19.90;61.00
27016;DHT22;14557;0.000;0.000;2023-12-22T09:35:42;19.90;60.80
27016;DHT22;14557;0.000;0.000;2023-12-22T09:38:09;19.80;60.70
27016;DHT22;14557;0.000;0.000;2023-12-22T09:40:35;19.80;60.30
27016;DHT22;14557;0.000;0.000;2023-12-22T09:43:03;19.80;60.20
27016;DHT22;14557;0.000;0.000;2023-12-22T09:45:30;19.80;60.10
27016;DHT22;14557;0.000;0.000;2023-12-22T09:48:02;19.80;60.00
27016;DHT22;14557;0.000;0.000;2023-12-22T09:50:30;19.80;59.80
27016;DHT22;14557;0.000;0.000;2023-12-22T09:52:57;19.80;59.70
27016;DHT22;14557;0.000;0.000;2023-12-22T09:55:23;19.80;59.70
27016;DHT22;14557;0.000;0.000;2023-12-22T09:57:52;19.80;59.60
27016;DHT22;14557;0.000;0.000;2023-12-22T10:00:18;19.80;59.50
27016;DHT22;14557;0.000;0.000;2023-12-22T10:02:45;19.80;59.40
27016;DHT22;14557;0.000;0.000;2023-12-22T10:05:11;19.80;59.30
27016;DHT22;14557;0.000;0.000;2023-12-22T10:07:41;19.80;59.30
27016;DHT22;14557;0.000;0.000;2023-12-22T10:10:11;19.80;59.20
27016;DHT22;14557;0.000;0.000;2023-12-22T10:12:37;19.80;59.20
27016;DHT22;14557;0.000;0.000;2023-12-22T10:15:05;19.80;59.10
27016;DHT22;14557;0.000;0.000;2023-12-22T10:17:33;19.80;59.10
27016;DHT22;14557;0.000;0.000;2023-12-22T10:19:59;19.80;59.10
27016;DHT22;14557;0.000;0.000;2023-12-22T10:22:24;19.80;58.90
27016;DHT22;14557;0.000;0.000;2023-12-22T10:24:50;19.80;59.00
27016;DHT22;14557;0.000;0.000;2023-12-22T10:27:17;19.80;58.90
27016;DHT22;14557;0.000;0.000;2023-12-22T10:29:48;19.80;58.80
27016;DHT22;14557;0.000;0.000;2023-12-22T10:32:15;19.80;59.20
27016;DHT22;14557;0.000;0.000;2023-12-22T10:34:41;19.80;59.50
27016;DHT22;14557;0.000;0.000;2023-12-22T10:37:09;19.80;59.70
27016;DHT22;14557;0.000;0.000;2023-12-22T10:39:36;19.90;60.10
27016;DHT22;14557;0.000;0.000;2023-12-22T10:42:02;19.90;60.10
27016;DHT22;14557;0.000;0.000;2023-12-22T10:44:28;19.90;61.10
27016;DHT22;14557;0.000;0.000;2023-12-22T10:46:55;19.90;61.30
27016;DHT22;14557;0.000;0.000;2023-12-22T10:49:22;19.90;61.40
27016;DHT22;14557;0.000;0.000;2023-12-22T10:51:49;19.90;62.60
27016;DHT22;14557;0.000;0.000;2023-12-22T10:54:15;19.90;62.70
27016;DHT22;14557;0.000;0.000;2023-12-22T10:56:41;19.90;63.60
27016;DHT22;14557;0.000;0.000;2023-12-22T10:59:07;19.90;64.30
27016;DHT22;14557;0.000;0.000;2023-12-22T11:01:36;19.90;65.70
27016;DHT22;14557;0.000;0.000;2023-12-22T11:04:17;19.90;66.20
27016;DHT22;14557;0.000;0.000;2023-12-22T11:06:47;19.90;63.60
27016;DHT22;14557;0.000;0.000;2023-12-22T11:09:15;19.90;66.20
27016;DHT22;14557;0.000;0.000;2023-12-22T11:11:42;19.90;66.90
27016;DHT22;14557;0.000;0.000;2023-12-22T11:14:08;19.90;68.40
27016;DHT22;14557;0.000;0.000;2023-12-22T11:16:35;19.90;66.70
27016;DHT22;14557;0.000;0.000;2023-12-22T11:19:03;19.90;67.80
27016;DHT22;14557;0.000;0.000;2023-12-22T11:21:29;19.90;68.40
27016;DHT22;14557;0.000;0.000;2023-12-22T11:23:56;19.90;70.60
27016;DHT22;14557;0.000;0.000;2023-12-22T11:26:25;19.90;71.70
27016;DHT22;14557;0.000;0.000;2023-12-22T11:28:52;19.90;70.60
27016;DHT22;14557;0.000;0.000;2023-12-22T11:31:19;19.90;68.60
27016;DHT22;14557;0.000;0.000;2023-12-22T11:33:46;19.90;70.90
27016;DHT22;14557;0.000;0.000;2023-12-22T11:36:13;19.90;69.70
27016;DHT22;14557;0.000;0.000;2023-12-22T11:38:44;19.90;69.10
27016;DHT22;14557;0.000;0.000;2023-12-22T11:41:24;19.90;69.60
27016;DHT22;14557;0.000;0.000;2023-12-22T11:43:51;19.90;73.00
27016;DHT22;14557;0.000;0.000;2023-12-22T11:46:17;19.90;74.70
27016;DHT22;14557;0.000;0.000;2023-12-22T11:48:50;19.90;71.90
27016;DHT22;14557;0.000;0.000;2023-12-22T11:51:17;19.90;71.60
27016;DHT22;14557;0.000;0.000;2023-12-22T11:53:43;19.90;71.60
27016;DHT22;14557;0.000;0.000;2023-12-22T11:56:10;19.90;75.20
27016;DHT22;14557;0.000;0.000;2023-12-22T12:01:12;19.90;73.70
27016;DHT22;14557;0.000;0.000;2023-12-22T12:03:42;19.90;73.20
27016;DHT22;14557;0.000;0.000;2023-12-22T12:08:48;19.80;72.50
27016;DHT22;14557;0.000;0.000;2023-12-22T12:11:14;19.80;75.30
27016;DHT22;14557;0.000;0.000;2023-12-22T12:13:45;19.90;74.20
27016;DHT22;14557;0.000;0.000;2023-12-22T12:16:12;19.90;74.80
27016;DHT22;14557;0.000;0.000;2023-12-22T12:18:39;20.00;74.10
27016;DHT22;14557;0.000;0.000;2023-12-22T12:21:09;20.00;74.30
27016;DHT22;14557;0.000;0.000;2023-12-22T12:23:35;19.90;75.10
27016;DHT22;14557;0.000;0.000;2023-12-22T12:26:01;20.00;75.90
27016;DHT22;14557;0.000;0.000;2023-12-22T12:28:34;19.90;75.60
27016;DHT22;14557;0.000;0.000;2023-12-22T12:31:09;20.00;74.80
27016;DHT22;14557;0.000;0.000;2023-12-22T12:33:36;20.00;74.60
27016;DHT22;14557;0.000;0.000;2023-12-22T12:36:03;19.90;74.20
27016;DHT22;14557;0.000;0.000;2023-12-22T12:38:53;19.90;74.60
27016;DHT22;14557;0.000;0.000;2023-12-22T12:41:30;19.90;74.20
27016;DHT22;14557;0.000;0.000;2023-12-22T12:43:59;19.90;73.60
27016;DHT22;14557;0.000;0.000;2023-12-22T12:46:34;20.00;78.40
27016;DHT22;14557;0.000;0.000;2023-12-22T12:49:09;20.00;78.60
27016;DHT22;14557;0.000;0.000;2023-12-22T12:51:42;20.10;80.30
27016;DHT22;14557;0.000;0.000;2023-12-22T12:54:09;20.10;80.20
27016;DHT22;14557;0.000;0.000;2023-12-22T12:56:43;20.10;79.50
27016;DHT22;14557;0.000;0.000;2023-12-22T12:59:14;20.10;78.60
27016;DHT22;14557;0.000;0.000;2023-12-22T13:01:41;20.20;78.20
27016;DHT22;14557;0.000;0.000;2023-12-22T13:04:07;20.20;78.60
27016;DHT22;14557;0.000;0.000;2023-12-22T13:06:33;20.10;76.70
27016;DHT22;14557;0.000;0.000;2023-12-22T13:08:59;20.20;82.90
27016;DHT22;14557;0.000;0.000;2023-12-22T13:11:26;20.20;84.80
27016;DHT22;14557;0.000;0.000;2023-12-22T13:13:53;20.20;83.10
27016;DHT22;14557;0.000;0.000;2023-12-22T13:16:20;20.20;81.10
27016;DHT22;14557;0.000;0.000;2023-12-22T13:18:47;20.20;79.90
27016;DHT22;14557;0.000;0.000;2023-12-22T13:21:13;20.30;78.90
27016;DHT22;14557;0.000;0.000;2023-12-22T13:23:40;20.20;78.40
27016;DHT22;14557;0.000;0.000;2023-12-22T13:26:06;20.20;78.20
27016;DHT22;14557;0.000;0.000;2023-12-22T13:28:31;20.20;78.30
27016;DHT22;14557;0.000;0.000;2023-12-22T13:30:58;20.20;77.90
27016;DHT22;14557;0.000;0.000;2023-12-22T13:33:23;20.20;77.60
27016;DHT22;14557;0.000;0.000;2023-12-22T13:35:57;20.20;77.50
27016;DHT22;14557;0.000;0.000;2023-12-22T13:38:24;20.20;77.40
27016;DHT22;14557;0.000;0.000;2023-12-22T13:40:49;20.20;77.50
27016;DHT22;14557;0.000;0.000;2023-12-22T13:43:15;20.20;77.30
27016;DHT22;14557;0.000;0.000;2023-12-22T13:45:41;20.20;76.40
27016;DHT22;14557;0.000;0.000;2023-12-22T13:48:07;20.20;76.70
27016;DHT22;14557;0.000;0.000;2023-12-22T13:50:33;20.20;76.10
27016;DHT22;14557;0.000;0.000;2023-12-22T13:53:10;20.20;76.10
27016;DHT22;14557;0.000;0.000;2023-12-22T13:55:36;20.20;75.50
27016;DHT22;14557;0.000;0.000;2023-12-22T13:58:03;20.20;74.00
27016;DHT22;14557;0.000;0.000;2023-12-22T14:00:30;20.10;73.00
27016;DHT22;14557;0.000;0.000;2023-12-22T14:02:57;20.10;72.50
27016;DHT22;14557;0.000;0.000;2023-12-22T14:05:23;20.20;72.80
27016;DHT22;14557;0.000;0.000;2023-12-22T14:07:49;20.10;71.60
27016;DHT22;14557;0.000;0.000;2023-12-22T14:10:15;20.10;72.10
27016;DHT22;14557;0.000;0.000;2023-12-22T14:12:41;20.10;71.40
27016;DHT22;14557;0.000;0.000;2023-12-22T14:15:11;20.10;71.60
27016;DHT22;14557;0.000;0.000;2023-12-22T14:17:37;20.10;71.30
27016;DHT22;14557;0.000;0.000;2023-12-22T14:20:04;20.10;71.50
27016;DHT22;14557;0.000;0.000;2023-12-22T14:22:36;20.10;72.50
27016;DHT22;14557;0.000;0.000;2023-12-22T14:25:03;20.10;70.40
27016;DHT22;14557;0.000;0.000;2023-12-22T14:27:28;20.20;70.20
27016;DHT22;14557;0.000;0.000;2023-12-22T14:29:54;20.10;70.10
27016;DHT22;14557;0.000;0.000;2023-12-22T14:32:20;20.10;70.00
27016;DHT22;14557;0.000;0.000;2023-12-22T14:34:46;20.10;69.90
27016;DHT22;14557;0.000;0.000;2023-12-22T14:37:12;20.10;70.00
27016;DHT22;14557;0.000;0.000;2023-12-22T14:39:39;20.10;68.60
27016;DHT22;14557;0.000;0.000;2023-12-22T14:42:04;20.10;68.80
27016;DHT22;14557;0.000;0.000;2023-12-22T14:44:30;20.20;68.80
27016;DHT22;14557;0.000;0.000;2023-12-22T14:46:56;20.10;68.70
27016;DHT22;14557;0.000;0.000;2023-12-22T14:49:22;20.10;68.50
27016;DHT22;14557;0.000;0.000;2023-12-22T14:51:48;20.10;68.20
27016;DHT22;14557;0.000;0.000;2023-12-22T14:54:20;20.10;68.20
27016;DHT22;14557;0.000;0.000;2023-12-22T14:56:47;20.10;67.40
27016;DHT22;14557;0.000;0.000;2023-12-22T14:59:14;20.10;67.30
27016;DHT22;14557;0.000;0.000;2023-12-22T15:01:42;20.10;67.10
27016;DHT22;14557;0.000;0.000;2023-12-22T15:04:08;20.00;67.00
27016;DHT22;14557;0.000;0.000;2023-12-22T15:06:38;20.10;66.90
27016;DHT22;14557;0.000;0.000;2023-12-22T15:09:06;20.10;66.50
27016;DHT22;14557;0.000;0.000;2023-12-22T15:11:31;20.10;66.50
27016;DHT22;14557;0.000;0.000;2023-12-22T15:13:57;20.10;66.40
27016;DHT22;14557;0.000;0.000;2023-12-22T15:16:23;20.10;66.60
27016;DHT22;14557;0.000;0.000;2023-12-22T15:18:49;20.10;66.20
27016;DHT22;14557;0.000;0.000;2023-12-22T15:21:21;20.10;66.40
27016;DHT22;14557;0.000;0.000;2023-12-22T15:23:47;20.00;66.40
27016;DHT22;14557;0.000;0.000;2023-12-22T15:26:23;20.00;66.30
27016;DHT22;14557;0.000;0.000;2023-12-22T15:28:51;20.00;66.30
27016;DHT22;14557;0.000;0.000;2023-12-22T15:31:17;20.00;66.20
27016;DHT22;14557;0.000;0.000;2023-12-22T15:33:43;20.00;65.90
27016;DHT22;14557;0.000;0.000;2023-12-22T15:36:09;20.00;65.90
27016;DHT22;14557;0.000;0.000;2023-12-22T15:38:34;20.00;65.70
27016;DHT22;14557;0.000;0.000;2023-12-22T15:41:01;20.10;65.80
27016;DHT22;14557;0.000;0.000;2023-12-22T15:43:27;20.00;66.30
27016;DHT22;14557;0.000;0.000;2023-12-22T15:45:53;20.00;65.20
27016;DHT22;14557;0.000;0.000;2023-12-22T15:48:19;20.00;65.50
27016;DHT22;14557;0.000;0.000;2023-12-22T15:50:45;20.00;65.80
27016;DHT22;14557;0.000;0.000;2023-12-22T15:53:12;20.00;65.50